sensor_id;sensor_type;location;lat;lon;timestamp;P1;durP1;ratioP1;P2;durP2;ratioP2
13672;SDS011;6909;52.202;9.876;2023-06-22T00:00:39;3.37;;;2.67;;
13672;SDS011;6909;52.202;9.876;2023-06-22T00:03:07;3.80;;;2.80;;
13672;SDS011;6909;52.202;9.876;2023-06-22T00:05:34;3.23;;;2.57;;
13672;SDS011;6909;52.202;9.876;2023-06-22T00:08:02;3.10;;;2.40;;
13672;SDS011;6909;52.202;9.876;2023-06-22T00:10:29;2.20;;;2.00;;
13672;SDS011;6909;52.202;9.876;2023-06-22T00:12:57;2.43;;;2.10;;
13672;SDS011;6909;52.202;9.876;2023-06-22T00:15:23;3.00;;;2.57;;
13672;SDS011;6909;52.202;9.876;2023-06-22T00:17:50;2.57;;;2.10;;
13672;SDS011;6909;52.202;9.876;2023-06-22T00:20:17;2.67;;;2.17;;
13672;SDS011;6909;52.202;9.876;2023-06-22T00:22:44;2.93;;;2.37;;
13672;SDS011;6909;52.202;9.876;2023-06-22T00:25:11;2.67;;;2.00;;
13672;SDS011;6909;52.202;9.876;2023-06-22T00:27:38;2.83;;;2.53;;
13672;SDS011;6909;52.202;9.876;2023-06-22T00:30:06;3.83;;;2.53;;
13672;SDS011;6909;52.202;9.876;2023-06-22T00:32:34;4.13;;;2.90;;
13672;SDS011;6909;52.202;9.876;2023-06-22T00:35:00;3.73;;;2.73;;
13672;SDS011;6909;52.202;9.876;2023-06-22T00:37:27;2.03;;;1.83;;
13672;SDS011;6909;52.202;9.876;2023-06-22T00:39:54;3.63;;;2.77;;
13672;SDS011;6909;52.202;9.876;2023-06-22T00:42:21;2.43;;;2.23;;
13672;SDS011;6909;52.202;9.876;2023-06-22T00:44:48;3.57;;;2.63;;
13672;SDS011;6909;52.202;9.876;2023-06-22T00:47:17;3.00;;;2.20;;
13672;SDS011;6909;52.202;9.876;2023-06-22T00:49:44;5.53;;;3.27;;
13672;SDS011;6909;52.202;9.876;2023-06-22T00:52:13;3.00;;;2.37;;
13672;SDS011;6909;52.202;9.876;2023-06-22T00:54:45;3.03;;;2.30;;
13672;SDS011;6909;52.202;9.876;2023-06-22T00:57:14;3.00;;;2.57;;
13672;SDS011;6909;52.202;9.876;2023-06-22T00:59:41;5.50;;;2.37;;
13672;SDS011;6909;52.202;9.876;2023-06-22T01:02:09;3.30;;;2.67;;
13672;SDS011;6909;52.202;9.876;2023-06-22T01:04:38;3.47;;;2.57;;
13672;SDS011;6909;52.202;9.876;2023-06-22T01:07:06;3.63;;;2.57;;
13672;SDS011;6909;52.202;9.876;2023-06-22T01:09:45;3.03;;;2.30;;
13672;SDS011;6909;52.202;9.876;2023-06-22T01:12:17;3.30;;;2.87;;
13672;SDS011;6909;52.202;9.876;2023-06-22T01:14:47;2.73;;;2.17;;
13672;SDS011;6909;52.202;9.876;2023-06-22T01:17:21;2.83;;;2.30;;
13672;SDS011;6909;52.202;9.876;2023-06-22T01:19:51;3.30;;;2.77;;
13672;SDS011;6909;52.202;9.876;2023-06-22T01:22:21;7.83;;;2.70;;
13672;SDS011;6909;52.202;9.876;2023-06-22T01:24:52;3.57;;;2.80;;
13672;SDS011;6909;52.202;9.876;2023-06-22T01:27:28;3.20;;;2.13;;
13672;SDS011;6909;52.202;9.876;2023-06-22T01:30:03;5.30;;;3.00;;
13672;SDS011;6909;52.202;9.876;2023-06-22T01:32:32;2.73;;;2.30;;
13672;SDS011;6909;52.202;9.876;2023-06-22T01:35:01;3.43;;;3.13;;
13672;SDS011;6909;52.202;9.876;2023-06-22T01:37:30;3.90;;;2.63;;
13672;SDS011;6909;52.202;9.876;2023-06-22T01:39:59;3.47;;;2.97;;
13672;SDS011;6909;52.202;9.876;2023-06-22T01:42:28;3.90;;;3.10;;
13672;SDS011;6909;52.202;9.876;2023-06-22T01:44:55;4.33;;;3.07;;
13672;SDS011;6909;52.202;9.876;2023-06-22T01:47:24;3.37;;;2.83;;
13672;SDS011;6909;52.202;9.876;2023-06-22T01:49:52;3.27;;;2.80;;
13672;SDS011;6909;52.202;9.876;2023-06-22T01:52:19;3.67;;;2.70;;
13672;SDS011;6909;52.202;9.876;2023-06-22T01:54:47;3.00;;;2.70;;
13672;SDS011;6909;52.202;9.876;2023-06-22T01:57:14;4.83;;;2.37;;
13672;SDS011;6909;52.202;9.876;2023-06-22T01:59:43;3.90;;;2.83;;
13672;SDS011;6909;52.202;9.876;2023-06-22T02:02:17;3.27;;;2.80;;
13672;SDS011;6909;52.202;9.876;2023-06-22T02:04:54;3.47;;;2.60;;
13672;SDS011;6909;52.202;9.876;2023-06-22T02:07:26;3.13;;;2.83;;
13672;SDS011;6909;52.202;9.876;2023-06-22T02:09:58;5.60;;;3.30;;
13672;SDS011;6909;52.202;9.876;2023-06-22T02:12:26;4.13;;;2.63;;
13672;SDS011;6909;52.202;9.876;2023-06-22T02:14:55;5.70;;;2.80;;
13672;SDS011;6909;52.202;9.876;2023-06-22T02:17:23;3.80;;;2.63;;
13672;SDS011;6909;52.202;9.876;2023-06-22T02:19:52;8.23;;;2.90;;
13672;SDS011;6909;52.202;9.876;2023-06-22T02:22:19;9.37;;;3.20;;
13672;SDS011;6909;52.202;9.876;2023-06-22T02:24:46;5.07;;;3.03;;
13672;SDS011;6909;52.202;9.876;2023-06-22T02:27:13;2.93;;;2.63;;
13672;SDS011;6909;52.202;9.876;2023-06-22T02:29:39;2.37;;;1.93;;
13672;SDS011;6909;52.202;9.876;2023-06-22T02:32:06;3.47;;;2.57;;
13672;SDS011;6909;52.202;9.876;2023-06-22T02:34:33;3.33;;;2.40;;
13672;SDS011;6909;52.202;9.876;2023-06-22T02:37:03;3.53;;;2.50;;
13672;SDS011;6909;52.202;9.876;2023-06-22T02:39:30;4.83;;;2.50;;
13672;SDS011;6909;52.202;9.876;2023-06-22T02:41:56;2.57;;;2.37;;
13672;SDS011;6909;52.202;9.876;2023-06-22T02:44:23;4.77;;;3.17;;
13672;SDS011;6909;52.202;9.876;2023-06-22T02:46:50;3.40;;;2.27;;
13672;SDS011;6909;52.202;9.876;2023-06-22T02:49:17;3.97;;;3.27;;
13672;SDS011;6909;52.202;9.876;2023-06-22T02:51:45;4.27;;;2.50;;
13672;SDS011;6909;52.202;9.876;2023-06-22T02:54:14;6.10;;;3.13;;
13672;SDS011;6909;52.202;9.876;2023-06-22T02:56:41;3.20;;;2.60;;
13672;SDS011;6909;52.202;9.876;2023-06-22T02:59:08;4.13;;;2.83;;
13672;SDS011;6909;52.202;9.876;2023-06-22T03:01:36;3.00;;;2.63;;
13672;SDS011;6909;52.202;9.876;2023-06-22T03:04:04;3.47;;;2.77;;
13672;SDS011;6909;52.202;9.876;2023-06-22T03:06:31;3.17;;;2.70;;
13672;SDS011;6909;52.202;9.876;2023-06-22T03:08:59;7.60;;;3.10;;
13672;SDS011;6909;52.202;9.876;2023-06-22T03:11:28;3.07;;;2.70;;
13672;SDS011;6909;52.202;9.876;2023-06-22T03:13:54;3.63;;;3.03;;
13672;SDS011;6909;52.202;9.876;2023-06-22T03:16:21;3.53;;;2.87;;
13672;SDS011;6909;52.202;9.876;2023-06-22T03:18:48;4.73;;;3.37;;
13672;SDS011;6909;52.202;9.876;2023-06-22T03:21:14;3.83;;;2.73;;
13672;SDS011;6909;52.202;9.876;2023-06-22T03:23:42;3.40;;;2.67;;
13672;SDS011;6909;52.202;9.876;2023-06-22T03:26:08;9.70;;;3.23;;
13672;SDS011;6909;52.202;9.876;2023-06-22T03:28:37;5.80;;;4.10;;
13672;SDS011;6909;52.202;9.876;2023-06-22T03:31:04;3.23;;;2.93;;
13672;SDS011;6909;52.202;9.876;2023-06-22T03:33:31;14.57;;;4.03;;
13672;SDS011;6909;52.202;9.876;2023-06-22T03:35:58;2.90;;;2.53;;
13672;SDS011;6909;52.202;9.876;2023-06-22T03:38:25;4.53;;;2.80;;
13672;SDS011;6909;52.202;9.876;2023-06-22T03:40:51;2.83;;;2.43;;
13672;SDS011;6909;52.202;9.876;2023-06-22T03:43:18;3.67;;;2.90;;
13672;SDS011;6909;52.202;9.876;2023-06-22T03:45:46;3.37;;;2.63;;
13672;SDS011;6909;52.202;9.876;2023-06-22T03:48:13;3.40;;;3.10;;
13672;SDS011;6909;52.202;9.876;2023-06-22T03:50:39;3.60;;;2.90;;
13672;SDS011;6909;52.202;9.876;2023-06-22T03:53:06;6.30;;;3.80;;
13672;SDS011;6909;52.202;9.876;2023-06-22T03:55:33;4.45;;;3.60;;
13672;SDS011;6909;52.202;9.876;2023-06-22T03:58:00;5.45;;;3.38;;
13672;SDS011;6909;52.202;9.876;2023-06-22T04:00:30;3.77;;;3.37;;
13672;SDS011;6909;52.202;9.876;2023-06-22T04:02:58;4.07;;;2.97;;
13672;SDS011;6909;52.202;9.876;2023-06-22T04:05:25;3.57;;;3.27;;
13672;SDS011;6909;52.202;9.876;2023-06-22T04:07:52;4.77;;;3.30;;
13672;SDS011;6909;52.202;9.876;2023-06-22T04:10:19;3.50;;;2.90;;
13672;SDS011;6909;52.202;9.876;2023-06-22T04:12:47;4.20;;;3.37;;
13672;SDS011;6909;52.202;9.876;2023-06-22T04:15:13;4.37;;;3.80;;
13672;SDS011;6909;52.202;9.876;2023-06-22T04:17:40;4.40;;;3.65;;
13672;SDS011;6909;52.202;9.876;2023-06-22T04:20:09;3.95;;;3.35;;
13672;SDS011;6909;52.202;9.876;2023-06-22T04:22:36;4.57;;;3.78;;
13672;SDS011;6909;52.202;9.876;2023-06-22T04:25:03;4.95;;;3.97;;
13672;SDS011;6909;52.202;9.876;2023-06-22T04:27:32;4.35;;;3.60;;
13672;SDS011;6909;52.202;9.876;2023-06-22T04:30:02;3.58;;;3.20;;
13672;SDS011;6909;52.202;9.876;2023-06-22T04:32:29;5.60;;;3.63;;
13672;SDS011;6909;52.202;9.876;2023-06-22T04:34:56;3.72;;;3.17;;
13672;SDS011;6909;52.202;9.876;2023-06-22T04:37:24;4.05;;;3.50;;
13672;SDS011;6909;52.202;9.876;2023-06-22T04:39:51;7.38;;;3.58;;
13672;SDS011;6909;52.202;9.876;2023-06-22T04:42:18;5.03;;;3.88;;
13672;SDS011;6909;52.202;9.876;2023-06-22T04:44:44;3.95;;;3.55;;
13672;SDS011;6909;52.202;9.876;2023-06-22T04:47:11;4.97;;;3.72;;
13672;SDS011;6909;52.202;9.876;2023-06-22T04:49:38;4.75;;;3.55;;
13672;SDS011;6909;52.202;9.876;2023-06-22T04:52:06;5.20;;;4.13;;
13672;SDS011;6909;52.202;9.876;2023-06-22T04:54:36;5.38;;;3.30;;
13672;SDS011;6909;52.202;9.876;2023-06-22T04:57:04;4.35;;;3.30;;
13672;SDS011;6909;52.202;9.876;2023-06-22T04:59:34;5.63;;;4.00;;
13672;SDS011;6909;52.202;9.876;2023-06-22T05:02:04;7.75;;;4.35;;
13672;SDS011;6909;52.202;9.876;2023-06-22T05:04:31;8.80;;;4.68;;
13672;SDS011;6909;52.202;9.876;2023-06-22T05:07:00;5.55;;;3.85;;
13672;SDS011;6909;52.202;9.876;2023-06-22T05:09:28;7.70;;;4.80;;
13672;SDS011;6909;52.202;9.876;2023-06-22T05:11:56;7.60;;;4.68;;
13672;SDS011;6909;52.202;9.876;2023-06-22T05:14:24;7.25;;;5.47;;
13672;SDS011;6909;52.202;9.876;2023-06-22T05:16:51;8.60;;;5.88;;
13672;SDS011;6909;52.202;9.876;2023-06-22T05:19:18;7.60;;;5.43;;
13672;SDS011;6909;52.202;9.876;2023-06-22T05:21:45;6.18;;;4.45;;
13672;SDS011;6909;52.202;9.876;2023-06-22T05:24:12;6.45;;;4.90;;
13672;SDS011;6909;52.202;9.876;2023-06-22T05:26:38;7.05;;;5.10;;
13672;SDS011;6909;52.202;9.876;2023-06-22T05:29:06;5.63;;;4.47;;
13672;SDS011;6909;52.202;9.876;2023-06-22T05:31:33;6.10;;;5.07;;
13672;SDS011;6909;52.202;9.876;2023-06-22T05:34:00;6.57;;;4.35;;
13672;SDS011;6909;52.202;9.876;2023-06-22T05:36:26;5.15;;;4.40;;
13672;SDS011;6909;52.202;9.876;2023-06-22T05:38:53;6.25;;;4.68;;
13672;SDS011;6909;52.202;9.876;2023-06-22T05:41:22;5.63;;;4.75;;
13672;SDS011;6909;52.202;9.876;2023-06-22T05:43:49;5.57;;;4.28;;
13672;SDS011;6909;52.202;9.876;2023-06-22T05:46:17;4.93;;;3.90;;
13672;SDS011;6909;52.202;9.876;2023-06-22T05:48:44;5.78;;;4.45;;
13672;SDS011;6909;52.202;9.876;2023-06-22T05:51:11;7.65;;;4.13;;
13672;SDS011;6909;52.202;9.876;2023-06-22T05:53:38;5.53;;;4.30;;
13672;SDS011;6909;52.202;9.876;2023-06-22T05:56:04;6.50;;;4.43;;
13672;SDS011;6909;52.202;9.876;2023-06-22T05:58:31;5.75;;;4.15;;
13672;SDS011;6909;52.202;9.876;2023-06-22T06:00:58;6.50;;;5.13;;
13672;SDS011;6909;52.202;9.876;2023-06-22T06:03:26;5.30;;;4.53;;
13672;SDS011;6909;52.202;9.876;2023-06-22T06:05:53;6.20;;;4.53;;
13672;SDS011;6909;52.202;9.876;2023-06-22T06:08:20;5.38;;;4.20;;
13672;SDS011;6909;52.202;9.876;2023-06-22T06:10:47;7.55;;;5.30;;
13672;SDS011;6909;52.202;9.876;2023-06-22T06:13:13;5.75;;;4.40;;
13672;SDS011;6909;52.202;9.876;2023-06-22T06:15:40;7.82;;;5.43;;
13672;SDS011;6909;52.202;9.876;2023-06-22T06:18:07;6.03;;;5.03;;
13672;SDS011;6909;52.202;9.876;2023-06-22T06:20:35;8.02;;;4.88;;
13672;SDS011;6909;52.202;9.876;2023-06-22T06:23:01;5.72;;;4.88;;
13672;SDS011;6909;52.202;9.876;2023-06-22T06:25:28;5.43;;;4.70;;
13672;SDS011;6909;52.202;9.876;2023-06-22T06:27:55;4.45;;;4.03;;
13672;SDS011;6909;52.202;9.876;2023-06-22T06:30:22;5.45;;;4.43;;
13672;SDS011;6909;52.202;9.876;2023-06-22T06:32:49;5.53;;;4.25;;
13672;SDS011;6909;52.202;9.876;2023-06-22T06:35:16;5.45;;;4.30;;
13672;SDS011;6909;52.202;9.876;2023-06-22T06:37:45;5.35;;;4.28;;
13672;SDS011;6909;52.202;9.876;2023-06-22T06:40:14;6.15;;;4.63;;
13672;SDS011;6909;52.202;9.876;2023-06-22T06:42:41;7.18;;;4.70;;
13672;SDS011;6909;52.202;9.876;2023-06-22T06:45:10;5.97;;;4.68;;
13672;SDS011;6909;52.202;9.876;2023-06-22T06:47:37;5.18;;;4.65;;
13672;SDS011;6909;52.202;9.876;2023-06-22T06:50:05;6.45;;;4.45;;
13672;SDS011;6909;52.202;9.876;2023-06-22T06:52:32;5.80;;;4.45;;
13672;SDS011;6909;52.202;9.876;2023-06-22T06:55:00;5.93;;;4.53;;
13672;SDS011;6909;52.202;9.876;2023-06-22T06:57:29;5.25;;;4.15;;
13672;SDS011;6909;52.202;9.876;2023-06-22T06:59:56;5.57;;;4.47;;
13672;SDS011;6909;52.202;9.876;2023-06-22T07:02:23;5.72;;;4.60;;
13672;SDS011;6909;52.202;9.876;2023-06-22T07:04:50;5.88;;;4.35;;
13672;SDS011;6909;52.202;9.876;2023-06-22T07:07:16;5.05;;;4.38;;
13672;SDS011;6909;52.202;9.876;2023-06-22T07:09:43;5.15;;;3.90;;
13672;SDS011;6909;52.202;9.876;2023-06-22T07:12:11;5.28;;;3.85;;
13672;SDS011;6909;52.202;9.876;2023-06-22T07:14:38;5.78;;;4.07;;
13672;SDS011;6909;52.202;9.876;2023-06-22T07:17:29;4.32;;;3.75;;
13672;SDS011;6909;52.202;9.876;2023-06-22T07:19:56;4.45;;;3.95;;
13672;SDS011;6909;52.202;9.876;2023-06-22T07:22:23;7.70;;;4.15;;
13672;SDS011;6909;52.202;9.876;2023-06-22T07:24:50;4.45;;;3.60;;
13672;SDS011;6909;52.202;9.876;2023-06-22T07:27:18;4.70;;;3.83;;
13672;SDS011;6909;52.202;9.876;2023-06-22T07:29:45;4.90;;;3.95;;
13672;SDS011;6909;52.202;9.876;2023-06-22T07:32:12;4.85;;;4.38;;
13672;SDS011;6909;52.202;9.876;2023-06-22T07:34:38;4.57;;;3.90;;
13672;SDS011;6909;52.202;9.876;2023-06-22T07:37:06;4.05;;;3.50;;
13672;SDS011;6909;52.202;9.876;2023-06-22T07:39:33;4.10;;;3.70;;
13672;SDS011;6909;52.202;9.876;2023-06-22T07:41:59;4.05;;;3.28;;
13672;SDS011;6909;52.202;9.876;2023-06-22T07:44:27;4.43;;;3.60;;
13672;SDS011;6909;52.202;9.876;2023-06-22T07:46:54;7.35;;;3.60;;
13672;SDS011;6909;52.202;9.876;2023-06-22T07:49:21;4.22;;;3.60;;
13672;SDS011;6909;52.202;9.876;2023-06-22T07:51:47;7.82;;;4.15;;
13672;SDS011;6909;52.202;9.876;2023-06-22T07:54:14;4.32;;;3.80;;
13672;SDS011;6909;52.202;9.876;2023-06-22T07:56:42;5.28;;;3.67;;
13672;SDS011;6909;52.202;9.876;2023-06-22T07:59:09;5.90;;;3.80;;
13672;SDS011;6909;52.202;9.876;2023-06-22T08:01:37;4.60;;;3.28;;
13672;SDS011;6909;52.202;9.876;2023-06-22T08:04:03;5.53;;;4.07;;
13672;SDS011;6909;52.202;9.876;2023-06-22T08:06:31;4.30;;;3.83;;
13672;SDS011;6909;52.202;9.876;2023-06-22T08:08:58;5.97;;;3.97;;
13672;SDS011;6909;52.202;9.876;2023-06-22T08:11:24;4.22;;;3.70;;
13672;SDS011;6909;52.202;9.876;2023-06-22T08:13:51;5.68;;;3.65;;
13672;SDS011;6909;52.202;9.876;2023-06-22T08:16:20;4.45;;;3.80;;
13672;SDS011;6909;52.202;9.876;2023-06-22T08:18:48;5.00;;;3.78;;
13672;SDS011;6909;52.202;9.876;2023-06-22T08:21:15;5.53;;;3.80;;
13672;SDS011;6909;52.202;9.876;2023-06-22T08:23:42;4.60;;;3.58;;
13672;SDS011;6909;52.202;9.876;2023-06-22T08:26:09;5.13;;;3.75;;
13672;SDS011;6909;52.202;9.876;2023-06-22T08:28:35;4.95;;;3.92;;
13672;SDS011;6909;52.202;9.876;2023-06-22T08:31:02;5.85;;;4.72;;
13672;SDS011;6909;52.202;9.876;2023-06-22T08:33:29;7.55;;;4.28;;
13672;SDS011;6909;52.202;9.876;2023-06-22T08:35:57;4.55;;;3.58;;
13672;SDS011;6909;52.202;9.876;2023-06-22T08:38:24;7.25;;;3.95;;
13672;SDS011;6909;52.202;9.876;2023-06-22T08:40:51;6.30;;;3.60;;
13672;SDS011;6909;52.202;9.876;2023-06-22T08:43:18;4.35;;;3.70;;
13672;SDS011;6909;52.202;9.876;2023-06-22T08:45:44;3.95;;;3.50;;
13672;SDS011;6909;52.202;9.876;2023-06-22T08:48:11;5.63;;;3.47;;
13672;SDS011;6909;52.202;9.876;2023-06-22T08:50:38;3.80;;;3.40;;
13672;SDS011;6909;52.202;9.876;2023-06-22T08:53:06;4.72;;;3.80;;
13672;SDS011;6909;52.202;9.876;2023-06-22T08:55:33;4.28;;;3.88;;
13672;SDS011;6909;52.202;9.876;2023-06-22T08:58:00;3.95;;;3.10;;
13672;SDS011;6909;52.202;9.876;2023-06-22T09:00:27;4.00;;;3.33;;
13672;SDS011;6909;52.202;9.876;2023-06-22T09:02:57;5.40;;;4.65;;
13672;SDS011;6909;52.202;9.876;2023-06-22T09:05:24;6.90;;;3.72;;
13672;SDS011;6909;52.202;9.876;2023-06-22T09:07:51;4.22;;;3.70;;
13672;SDS011;6909;52.202;9.876;2023-06-22T09:10:21;4.65;;;4.10;;
13672;SDS011;6909;52.202;9.876;2023-06-22T09:12:47;3.85;;;3.45;;
13672;SDS011;6909;52.202;9.876;2023-06-22T09:15:14;5.28;;;3.88;;
13672;SDS011;6909;52.202;9.876;2023-06-22T09:17:41;4.57;;;3.58;;
13672;SDS011;6909;52.202;9.876;2023-06-22T09:20:08;5.25;;;4.00;;
13672;SDS011;6909;52.202;9.876;2023-06-22T09:22:36;4.82;;;4.00;;
13672;SDS011;6909;52.202;9.876;2023-06-22T09:25:03;5.00;;;4.00;;
13672;SDS011;6909;52.202;9.876;2023-06-22T09:27:31;5.45;;;4.28;;
13672;SDS011;6909;52.202;9.876;2023-06-22T09:29:58;6.03;;;4.22;;
13672;SDS011;6909;52.202;9.876;2023-06-22T09:32:25;5.20;;;4.70;;
13672;SDS011;6909;52.202;9.876;2023-06-22T09:34:52;4.28;;;3.88;;
13672;SDS011;6909;52.202;9.876;2023-06-22T09:37:18;6.78;;;4.55;;
13672;SDS011;6909;52.202;9.876;2023-06-22T09:39:45;5.18;;;4.53;;
13672;SDS011;6909;52.202;9.876;2023-06-22T09:42:12;6.03;;;4.65;;
13672;SDS011;6909;52.202;9.876;2023-06-22T09:44:40;4.88;;;4.22;;
13672;SDS011;6909;52.202;9.876;2023-06-22T09:47:07;5.15;;;4.28;;
13672;SDS011;6909;52.202;9.876;2023-06-22T09:49:34;6.53;;;5.00;;
13672;SDS011;6909;52.202;9.876;2023-06-22T09:52:00;5.60;;;4.32;;
13672;SDS011;6909;52.202;9.876;2023-06-22T09:54:27;7.57;;;5.13;;
13672;SDS011;6909;52.202;9.876;2023-06-22T09:56:54;5.82;;;4.70;;
13672;SDS011;6909;52.202;9.876;2023-06-22T09:59:20;5.88;;;4.85;;
13672;SDS011;6909;52.202;9.876;2023-06-22T10:01:48;7.10;;;5.03;;
13672;SDS011;6909;52.202;9.876;2023-06-22T10:04:15;6.10;;;5.50;;
13672;SDS011;6909;52.202;9.876;2023-06-22T10:06:42;6.15;;;4.68;;
13672;SDS011;6909;52.202;9.876;2023-06-22T10:09:09;7.72;;;5.20;;
13672;SDS011;6909;52.202;9.876;2023-06-22T10:11:35;6.32;;;5.40;;
13672;SDS011;6909;52.202;9.876;2023-06-22T10:14:02;8.35;;;5.30;;
13672;SDS011;6909;52.202;9.876;2023-06-22T10:16:32;6.68;;;5.40;;
13672;SDS011;6909;52.202;9.876;2023-06-22T10:19:02;6.15;;;5.55;;
13672;SDS011;6909;52.202;9.876;2023-06-22T10:21:28;7.47;;;5.65;;
13672;SDS011;6909;52.202;9.876;2023-06-22T10:23:55;6.72;;;5.57;;
13672;SDS011;6909;52.202;9.876;2023-06-22T10:26:22;7.53;;;5.32;;
13672;SDS011;6909;52.202;9.876;2023-06-22T10:28:49;7.78;;;6.28;;
13672;SDS011;6909;52.202;9.876;2023-06-22T10:31:16;6.93;;;5.53;;
13672;SDS011;6909;52.202;9.876;2023-06-22T10:33:43;6.88;;;6.20;;
13672;SDS011;6909;52.202;9.876;2023-06-22T10:36:11;8.77;;;6.20;;
13672;SDS011;6909;52.202;9.876;2023-06-22T10:38:38;6.95;;;5.80;;
13672;SDS011;6909;52.202;9.876;2023-06-22T10:41:04;6.97;;;5.65;;
13672;SDS011;6909;52.202;9.876;2023-06-22T10:43:31;7.00;;;5.22;;
13672;SDS011;6909;52.202;9.876;2023-06-22T10:45:58;9.40;;;6.43;;
13672;SDS011;6909;52.202;9.876;2023-06-22T10:48:25;7.22;;;6.10;;
13672;SDS011;6909;52.202;9.876;2023-06-22T10:50:51;8.10;;;7.13;;
13672;SDS011;6909;52.202;9.876;2023-06-22T10:53:20;6.93;;;5.57;;
13672;SDS011;6909;52.202;9.876;2023-06-22T10:55:47;8.20;;;5.70;;
13672;SDS011;6909;52.202;9.876;2023-06-22T10:58:14;7.45;;;6.25;;
13672;SDS011;6909;52.202;9.876;2023-06-22T11:00:41;7.68;;;6.10;;
13672;SDS011;6909;52.202;9.876;2023-06-22T11:03:07;8.13;;;6.22;;
13672;SDS011;6909;52.202;9.876;2023-06-22T11:05:34;10.35;;;6.00;;
13672;SDS011;6909;52.202;9.876;2023-06-22T11:08:01;7.72;;;6.38;;
13672;SDS011;6909;52.202;9.876;2023-06-22T11:10:29;7.43;;;6.38;;
13672;SDS011;6909;52.202;9.876;2023-06-22T11:12:55;7.05;;;6.20;;
13672;SDS011;6909;52.202;9.876;2023-06-22T11:15:23;6.60;;;5.93;;
13672;SDS011;6909;52.202;9.876;2023-06-22T11:17:49;8.52;;;7.20;;
13672;SDS011;6909;52.202;9.876;2023-06-22T11:20:16;6.95;;;6.20;;
13672;SDS011;6909;52.202;9.876;2023-06-22T11:22:43;8.90;;;6.43;;
13672;SDS011;6909;52.202;9.876;2023-06-22T11:25:10;8.55;;;7.15;;
13672;SDS011;6909;52.202;9.876;2023-06-22T11:27:38;6.85;;;6.15;;
13672;SDS011;6909;52.202;9.876;2023-06-22T11:30:06;8.98;;;6.70;;
13672;SDS011;6909;52.202;9.876;2023-06-22T11:32:33;7.95;;;6.45;;
13672;SDS011;6909;52.202;9.876;2023-06-22T11:35:00;8.05;;;6.50;;
13672;SDS011;6909;52.202;9.876;2023-06-22T11:37:27;9.60;;;7.22;;
13672;SDS011;6909;52.202;9.876;2023-06-22T11:39:54;8.55;;;6.97;;
13672;SDS011;6909;52.202;9.876;2023-06-22T11:42:21;9.35;;;7.28;;
13672;SDS011;6909;52.202;9.876;2023-06-22T11:44:50;8.95;;;6.75;;
13672;SDS011;6909;52.202;9.876;2023-06-22T11:47:17;8.57;;;6.80;;
13672;SDS011;6909;52.202;9.876;2023-06-22T11:49:44;8.60;;;6.80;;
13672;SDS011;6909;52.202;9.876;2023-06-22T11:52:11;7.88;;;6.22;;
13672;SDS011;6909;52.202;9.876;2023-06-22T11:54:38;14.35;;;8.07;;
13672;SDS011;6909;52.202;9.876;2023-06-22T11:57:04;8.48;;;7.25;;
13672;SDS011;6909;52.202;9.876;2023-06-22T11:59:31;7.78;;;6.50;;
13672;SDS011;6909;52.202;9.876;2023-06-22T12:01:59;7.82;;;6.13;;
13672;SDS011;6909;52.202;9.876;2023-06-22T12:04:26;6.88;;;5.97;;
13672;SDS011;6909;52.202;9.876;2023-06-22T12:06:52;7.05;;;6.35;;
13672;SDS011;6909;52.202;9.876;2023-06-22T12:09:19;7.47;;;6.68;;
13672;SDS011;6909;52.202;9.876;2023-06-22T12:11:46;6.55;;;5.82;;
13672;SDS011;6909;52.202;9.876;2023-06-22T12:14:13;8.32;;;6.03;;
13672;SDS011;6909;52.202;9.876;2023-06-22T12:16:39;6.07;;;5.47;;
13672;SDS011;6909;52.202;9.876;2023-06-22T12:19:07;6.47;;;5.80;;
13672;SDS011;6909;52.202;9.876;2023-06-22T12:21:34;7.15;;;4.60;;
13672;SDS011;6909;52.202;9.876;2023-06-22T12:24:01;7.15;;;6.03;;
13672;SDS011;6909;52.202;9.876;2023-06-22T12:26:27;6.65;;;5.70;;
13672;SDS011;6909;52.202;9.876;2023-06-22T12:28:54;6.88;;;4.97;;
13672;SDS011;6909;52.202;9.876;2023-06-22T12:31:21;5.88;;;5.28;;
13672;SDS011;6909;52.202;9.876;2023-06-22T12:33:48;6.03;;;5.10;;
13672;SDS011;6909;52.202;9.876;2023-06-22T12:36:16;7.20;;;5.63;;
13672;SDS011;6909;52.202;9.876;2023-06-22T12:38:43;7.10;;;5.93;;
13672;SDS011;6909;52.202;9.876;2023-06-22T12:41:09;6.53;;;5.90;;
13672;SDS011;6909;52.202;9.876;2023-06-22T12:43:36;7.47;;;6.18;;
13672;SDS011;6909;52.202;9.876;2023-06-22T12:46:03;5.80;;;5.18;;
13672;SDS011;6909;52.202;9.876;2023-06-22T12:48:29;6.20;;;5.60;;
13672;SDS011;6909;52.202;9.876;2023-06-22T12:50:56;6.15;;;5.55;;
13672;SDS011;6909;52.202;9.876;2023-06-22T12:53:24;7.28;;;6.30;;
13672;SDS011;6909;52.202;9.876;2023-06-22T12:55:52;7.45;;;6.40;;
13672;SDS011;6909;52.202;9.876;2023-06-22T12:58:19;5.88;;;5.28;;
13672;SDS011;6909;52.202;9.876;2023-06-22T13:00:45;7.18;;;6.47;;
13672;SDS011;6909;52.202;9.876;2023-06-22T13:03:12;6.82;;;6.13;;
13672;SDS011;6909;52.202;9.876;2023-06-22T13:05:39;6.30;;;5.18;;
13672;SDS011;6909;52.202;9.876;2023-06-22T13:08:05;6.10;;;5.50;;
13672;SDS011;6909;52.202;9.876;2023-06-22T13:10:34;6.22;;;5.40;;
13672;SDS011;6909;52.202;9.876;2023-06-22T13:13:01;5.13;;;4.63;;
13672;SDS011;6909;52.202;9.876;2023-06-22T13:15:27;6.05;;;5.32;;
13672;SDS011;6909;52.202;9.876;2023-06-22T13:17:54;5.07;;;4.55;;
13672;SDS011;6909;52.202;9.876;2023-06-22T13:20:21;5.45;;;4.80;;
13672;SDS011;6909;52.202;9.876;2023-06-22T13:22:48;5.63;;;4.07;;
13672;SDS011;6909;52.202;9.876;2023-06-22T13:25:15;5.05;;;4.55;;
13672;SDS011;6909;52.202;9.876;2023-06-22T13:27:45;5.35;;;4.85;;
13672;SDS011;6909;52.202;9.876;2023-06-22T13:30:12;4.55;;;4.15;;
13672;SDS011;6909;52.202;9.876;2023-06-22T13:32:39;4.78;;;4.07;;
13672;SDS011;6909;52.202;9.876;2023-06-22T13:35:07;4.13;;;3.78;;
13672;SDS011;6909;52.202;9.876;2023-06-22T13:37:34;5.13;;;4.45;;
13672;SDS011;6909;52.202;9.876;2023-06-22T13:40:01;4.53;;;4.10;;
13672;SDS011;6909;52.202;9.876;2023-06-22T13:42:30;4.47;;;4.07;;
13672;SDS011;6909;52.202;9.876;2023-06-22T13:44:58;5.10;;;4.00;;
13672;SDS011;6909;52.202;9.876;2023-06-22T13:47:25;4.63;;;4.10;;
13672;SDS011;6909;52.202;9.876;2023-06-22T13:49:52;5.00;;;4.13;;
13672;SDS011;6909;52.202;9.876;2023-06-22T13:52:18;4.53;;;4.00;;
13672;SDS011;6909;52.202;9.876;2023-06-22T13:54:45;4.45;;;4.05;;
13672;SDS011;6909;52.202;9.876;2023-06-22T13:57:12;4.28;;;3.88;;
13672;SDS011;6909;52.202;9.876;2023-06-22T13:59:38;6.97;;;4.43;;
13672;SDS011;6909;52.202;9.876;2023-06-22T14:02:07;5.10;;;3.95;;
13672;SDS011;6909;52.202;9.876;2023-06-22T14:04:33;5.50;;;4.20;;
13672;SDS011;6909;52.202;9.876;2023-06-22T14:07:00;5.30;;;4.35;;
13672;SDS011;6909;52.202;9.876;2023-06-22T14:09:27;4.85;;;3.70;;
13672;SDS011;6909;52.202;9.876;2023-06-22T14:11:54;6.10;;;4.93;;
13672;SDS011;6909;52.202;9.876;2023-06-22T14:14:21;4.40;;;4.00;;
13672;SDS011;6909;52.202;9.876;2023-06-22T14:16:48;5.35;;;4.68;;
13672;SDS011;6909;52.202;9.876;2023-06-22T14:19:17;5.30;;;4.57;;
13672;SDS011;6909;52.202;9.876;2023-06-22T14:21:44;5.45;;;3.78;;
13672;SDS011;6909;52.202;9.876;2023-06-22T14:24:11;4.15;;;3.55;;
13672;SDS011;6909;52.202;9.876;2023-06-22T14:26:38;4.80;;;4.00;;
13672;SDS011;6909;52.202;9.876;2023-06-22T14:29:05;4.10;;;3.70;;
13672;SDS011;6909;52.202;9.876;2023-06-22T14:31:32;6.15;;;3.70;;
13672;SDS011;6909;52.202;9.876;2023-06-22T14:33:58;5.22;;;4.10;;
13672;SDS011;6909;52.202;9.876;2023-06-22T14:36:27;4.38;;;3.97;;
13672;SDS011;6909;52.202;9.876;2023-06-22T14:38:54;4.95;;;3.97;;
13672;SDS011;6909;52.202;9.876;2023-06-22T14:41:20;5.65;;;5.15;;
13672;SDS011;6909;52.202;9.876;2023-06-22T14:43:47;6.15;;;4.78;;
13672;SDS011;6909;52.202;9.876;2023-06-22T14:46:15;4.63;;;4.15;;
13672;SDS011;6909;52.202;9.876;2023-06-22T14:48:43;4.40;;;4.00;;
13672;SDS011;6909;52.202;9.876;2023-06-22T14:51:11;4.78;;;4.28;;
13672;SDS011;6909;52.202;9.876;2023-06-22T14:53:39;4.65;;;4.25;;
13672;SDS011;6909;52.202;9.876;2023-06-22T14:56:06;5.20;;;4.70;;
13672;SDS011;6909;52.202;9.876;2023-06-22T14:58:33;5.90;;;5.18;;
13672;SDS011;6909;52.202;9.876;2023-06-22T15:01:00;5.07;;;4.57;;